Time;durP1;ratioP1;P1;durP2;ratioP2;P2;SDS_P1;SDS_P2;PMS_P1;PMS_P2;Temp;Humidity;BMP_temperature;BMP_pressure;BME280_temperature;BME280_humidity;BME280_pressure;Samples;Min_cycle;Max_cycle;Signal;HPM_P1;HPM_P2
2023/05/06 00:02:05;;;;;;;0.70;0.70;;;11.70;83.00;;;;;;5095036;28;20047;-73
2023/05/06 00:04:31;;;;;;;0.73;0.70;;;11.60;83.00;;;;;;5093283;28;20472;-73
2023/05/06 00:06:56;;;;;;;0.50;0.50;;;11.60;83.00;;;;;;5094649;28;20091;-73
2023/05/06 00:09:23;;;;;;;0.90;0.60;;;11.70;83.10;;;;;;5094036;28;20044;-72
2023/05/06 00:11:50;;;;;;;0.60;0.60;;;11.60;83.00;;;;;;5078189;28;20367;-72
2023/05/06 00:14:16;;;;;;;0.85;0.70;;;11.60;83.00;;;;;;5112886;28;20122;-72
2023/05/06 00:16:41;;;;;;;0.45;0.45;;;11.70;83.10;;;;;;5113116;28;20067;-73
2023/05/06 00:19:07;;;;;;;0.70;0.60;;;11.70;83.00;;;;;;5094438;28;20382;-72
2023/05/06 00:21:32;;;;;;;0.65;0.60;;;11.80;83.10;;;;;;5094638;28;20134;-72
2023/05/06 00:23:58;;;;;;;0.45;0.45;;;11.70;83.00;;;;;;5111572;28;20050;-72
2023/05/06 00:26:24;;;;;;;0.70;0.60;;;11.70;83.00;;;;;;5077304;28;20047;-72
2023/05/06 00:28:49;;;;;;;0.70;0.68;;;11.70;83.00;;;;;;5093073;28;20044;-72
2023/05/06 00:31:15;;;;;;;0.60;0.60;;;11.70;83.00;;;;;;5112695;28;20040;-73
2023/05/06 00:33:41;;;;;;;0.70;0.70;;;11.70;83.10;;;;;;5112836;28;20073;-73
2023/05/06 00:36:07;;;;;;;0.50;0.50;;;11.70;83.10;;;;;;5112623;28;20047;-72
2023/05/06 00:38:33;;;;;;;0.47;0.47;;;11.70;83.10;;;;;;5112525;28;20404;-73
2023/05/06 00:40:58;;;;;;;0.60;0.60;;;11.70;83.20;;;;;;5094059;28;20088;-72
2023/05/06 00:43:24;;;;;;;0.88;0.70;;;11.70;83.10;;;;;;5093940;28;20091;-73
2023/05/06 00:45:50;;;;;;;0.68;0.68;;;11.70;83.10;;;;;;5112165;28;20038;-73
2023/05/06 00:48:17;;;;;;;0.60;0.60;;;11.70;83.20;;;;;;5112569;28;20169;-72
2023/05/06 00:50:43;;;;;;;0.43;0.43;;;11.70;83.20;;;;;;5112593;28;20050;-72
2023/05/06 00:53:09;;;;;;;0.60;0.60;;;11.70;83.20;;;;;;5112511;28;20046;-73
2023/05/06 00:55:35;;;;;;;0.60;0.60;;;11.70;83.20;;;;;;5112634;28;20159;-72
2023/05/06 00:58:01;;;;;;;0.60;0.60;;;11.70;83.20;;;;;;5112753;28;20056;-72
2023/05/06 01:00:27;;;;;;;0.63;0.63;;;11.80;83.30;;;;;;5093862;28;20412;-72
2023/05/06 01:02:53;;;;;;;0.73;0.70;;;11.80;83.30;;;;;;5094170;28;20048;-72
2023/05/06 01:05:21;;;;;;;0.70;0.70;;;11.80;83.30;;;;;;5093801;28;20413;-71
2023/05/06 01:08:16;;;;;;;0.82;0.60;;;11.80;83.30;;;;;;5112075;28;20067;-73
2023/05/06 01:10:52;;;;;;;0.73;0.50;;;11.80;83.40;;;;;;5112090;28;20401;-72
2023/05/06 01:13:29;;;;;;;0.52;0.50;;;11.80;83.40;;;;;;5093716;28;20127;-72
2023/05/06 01:15:57;;;;;;;0.88;0.80;;;11.80;83.40;;;;;;5093643;28;20067;-71
2023/05/06 01:18:27;;;;;;;0.95;0.70;;;11.90;83.40;;;;;;5112380;28;20062;-72
2023/05/06 01:20:55;;;;;;;1.00;0.60;;;11.90;83.40;;;;;;5111735;28;20040;-72
2023/05/06 01:23:21;;;;;;;0.80;0.75;;;11.90;83.30;;;;;;5112104;28;20446;-72
2023/05/06 01:25:46;;;;;;;0.65;0.63;;;11.90;83.40;;;;;;5112307;28;20078;-73
2023/05/06 01:28:12;;;;;;;0.75;0.75;;;11.90;83.40;;;;;;5112247;28;20042;-73
2023/05/06 01:30:51;;;;;;;0.90;0.70;;;11.90;83.40;;;;;;5092156;28;20403;-73
2023/05/06 01:33:34;;;;;;;1.02;0.82;;;11.90;83.40;;;;;;5111696;28;20051;-73
2023/05/06 01:36:19;;;;;;;0.60;0.60;;;11.90;83.50;;;;;;5115164;28;20039;-73
2023/05/06 01:39:00;;;;;;;0.65;0.50;;;11.90;84.20;;;;;;5080606;28;20043;-73
2023/05/06 01:41:26;;;;;;;1.20;0.60;;;11.90;83.60;;;;;;5096748;28;20396;-73
2023/05/06 01:43:53;;;;;;;1.10;0.80;;;11.90;83.60;;;;;;5115221;28;20408;-73
2023/05/06 01:46:20;;;;;;;0.60;0.60;;;11.90;83.70;;;;;;5115078;28;20065;-73
2023/05/06 01:48:49;;;;;;;0.82;0.73;;;12.00;83.70;;;;;;5096811;28;20043;-72
2023/05/06 01:51:15;;;;;;;0.60;0.60;;;11.90;83.70;;;;;;5095600;28;20119;-72
2023/05/06 01:53:41;;;;;;;1.10;0.80;;;11.80;83.60;;;;;;5114841;28;20155;-73
2023/05/06 01:56:06;;;;;;;0.65;0.65;;;11.90;83.70;;;;;;5114771;28;20085;-73
2023/05/06 01:58:32;;;;;;;0.55;0.55;;;11.90;83.70;;;;;;5115049;28;20031;-72
2023/05/06 02:00:57;;;;;;;0.60;0.60;;;11.90;83.70;;;;;;5079694;28;20082;-72
2023/05/06 02:03:23;;;;;;;1.02;0.90;;;11.90;83.70;;;;;;5115238;28;20050;-73
2023/05/06 02:05:49;;;;;;;1.75;0.98;;;11.80;83.70;;;;;;5096435;28;20412;-73
2023/05/06 02:08:15;;;;;;;1.20;1.00;;;11.90;83.90;;;;;;5114955;28;20466;-72
2023/05/06 02:10:41;;;;;;;1.83;1.00;;;11.90;83.90;;;;;;5080386;28;20046;-72
2023/05/06 02:13:06;;;;;;;0.85;0.80;;;11.80;84.00;;;;;;5115385;28;20130;-72
2023/05/06 02:15:32;;;;;;;1.10;0.90;;;11.80;84.00;;;;;;5115243;28;20036;-72
2023/05/06 02:17:58;;;;;;;0.73;0.68;;;11.80;84.20;;;;;;5097207;28;20069;-72
2023/05/06 02:20:24;;;;;;;1.45;0.90;;;11.80;84.20;;;;;;5114571;28;20047;-72
2023/05/06 02:22:50;;;;;;;1.45;1.00;;;11.70;84.30;;;;;;5114578;28;20035;-72
2023/05/06 02:25:16;;;;;;;1.38;1.15;;;11.70;84.40;;;;;;5114503;28;20050;-72
2023/05/06 02:27:43;;;;;;;1.08;0.93;;;11.60;84.40;;;;;;5115007;28;20122;-71
2023/05/06 02:30:10;;;;;;;1.00;0.85;;;11.60;84.40;;;;;;5097179;28;20378;-71
2023/05/06 02:32:35;;;;;;;1.17;0.90;;;11.60;84.50;;;;;;5095294;28;20040;-71
2023/05/06 02:35:01;;;;;;;0.93;0.77;;;11.60;84.60;;;;;;5114661;28;20042;-72
2023/05/06 02:37:27;;;;;;;1.10;1.00;;;11.60;84.70;;;;;;5096419;28;20088;-71
2023/05/06 02:39:52;;;;;;;1.10;1.00;;;11.50;84.70;;;;;;5114306;28;20035;-72
2023/05/06 02:42:19;;;;;;;1.00;0.80;;;11.50;84.80;;;;;;5096082;28;20082;-71
2023/05/06 02:44:45;;;;;;;0.95;0.90;;;11.40;84.80;;;;;;5096271;28;20051;-71
2023/05/06 02:47:11;;;;;;;0.90;0.80;;;11.40;84.80;;;;;;5113452;28;20027;-71
2023/05/06 02:49:37;;;;;;;1.20;0.90;;;11.40;84.80;;;;;;5114645;28;20411;-72
2023/05/06 02:52:03;;;;;;;1.10;1.00;;;11.40;84.90;;;;;;5114059;28;20107;-72
2023/05/06 02:54:28;;;;;;;1.13;0.90;;;11.40;84.90;;;;;;5114273;28;20036;-72
2023/05/06 02:56:54;;;;;;;1.52;1.08;;;11.30;85.00;;;;;;5095128;28;20047;-72
2023/05/06 02:59:20;;;;;;;1.17;0.90;;;11.30;85.00;;;;;;5094259;28;20619;-72
2023/05/06 03:01:46;;;;;;;1.13;0.98;;;11.20;84.90;;;;;;5113826;28;20054;-72
2023/05/06 03:04:12;;;;;;;1.10;0.98;;;11.30;85.00;;;;;;5113729;28;20393;-72
2023/05/06 03:06:37;;;;;;;0.88;0.80;;;11.20;85.00;;;;;;5113744;28;20487;-72
2023/05/06 03:09:03;;;;;;;0.73;0.68;;;11.30;85.10;;;;;;5093840;28;20079;-71
2023/05/06 03:11:30;;;;;;;1.63;1.10;;;11.20;85.00;;;;;;5113863;28;20040;-71
2023/05/06 03:13:56;;;;;;;1.17;1.00;;;11.20;85.10;;;;;;5095425;28;20042;-71
2023/05/06 03:16:21;;;;;;;1.25;1.00;;;11.10;85.10;;;;;;5095314;28;20036;-72
2023/05/06 03:18:47;;;;;;;1.10;1.00;;;11.10;85.20;;;;;;5095264;28;20055;-71
2023/05/06 03:21:13;;;;;;;1.83;1.10;;;11.10;85.20;;;;;;5095176;28;20035;-71
2023/05/06 03:23:38;;;;;;;1.20;0.90;;;11.00;85.20;;;;;;5095164;28;20492;-71
2023/05/06 03:26:04;;;;;;;1.02;0.90;;;11.00;85.20;;;;;;5113329;28;20035;-71
2023/05/06 03:28:30;;;;;;;1.20;0.90;;;11.00;85.20;;;;;;5095785;28;20080;-72
2023/05/06 03:30:55;;;;;;;2.42;1.00;;;11.00;85.20;;;;;;5095263;28;20069;-71
2023/05/06 03:33:21;;;;;;;1.40;0.95;;;11.00;85.30;;;;;;5113371;28;20036;-72
2023/05/06 03:35:46;;;;;;;1.45;1.00;;;11.00;85.20;;;;;;5113933;28;20078;-72
2023/05/06 03:38:12;;;;;;;1.42;1.00;;;11.00;85.20;;;;;;5113814;28;20063;-72
2023/05/06 03:40:38;;;;;;;1.52;0.90;;;11.00;85.20;;;;;;5095276;28;20039;-72
2023/05/06 03:43:03;;;;;;;1.00;0.90;;;11.00;85.20;;;;;;5113865;28;20047;-72
2023/05/06 03:45:29;;;;;;;1.50;0.98;;;10.90;85.10;;;;;;5113058;28;20052;-72
2023/05/06 03:47:55;;;;;;;1.00;0.90;;;10.90;85.20;;;;;;5078096;28;20067;-72
2023/05/06 03:50:21;;;;;;;1.10;0.90;;;10.80;85.20;;;;;;5078157;28;20122;-72
2023/05/06 03:52:47;;;;;;;1.20;0.82;;;10.80;85.30;;;;;;5113126;28;20118;-72
2023/05/06 03:55:12;;;;;;;1.23;0.95;;;10.80;85.30;;;;;;5060267;28;20390;-72
2023/05/06 03:57:38;;;;;;;1.98;1.20;;;10.80;85.40;;;;;;5094233;28;20040;-71
2023/05/06 04:00:05;;;;;;;1.38;1.00;;;10.80;85.40;;;;;;5112984;28;20040;-72
2023/05/06 04:02:33;;;;;;;1.70;1.10;;;10.80;85.40;;;;;;5095039;28;20139;-72
2023/05/06 04:04:59;;;;;;;1.13;0.88;;;10.80;85.40;;;;;;5094035;28;20123;-72
2023/05/06 04:07:25;;;;;;;1.33;1.08;;;10.80;85.30;;;;;;5093704;28;20071;-72
2023/05/06 04:09:50;;;;;;;1.48;1.00;;;10.80;85.20;;;;;;5094987;28;20071;-72
2023/05/06 04:12:16;;;;;;;1.33;0.90;;;10.80;85.20;;;;;;5095020;28;20036;-71
2023/05/06 04:14:41;;;;;;;1.42;1.10;;;10.80;85.10;;;;;;5077882;28;20086;-71
2023/05/06 04:17:07;;;;;;;1.23;0.95;;;10.90;85.20;;;;;;5077903;28;20031;-72
2023/05/06 04:19:33;;;;;;;1.45;1.10;;;10.80;85.20;;;;;;5113019;28;20047;-72
2023/05/06 04:21:58;;;;;;;0.88;0.80;;;10.80;85.10;;;;;;5113072;28;20035;-72
2023/05/06 04:24:27;;;;;;;1.50;0.95;;;10.90;85.20;;;;;;5094499;28;20039;-72
2023/05/06 04:26:52;;;;;;;0.70;0.70;;;10.80;85.10;;;;;;5094462;28;20054;-71
2023/05/06 04:29:18;;;;;;;1.08;0.85;;;10.90;85.10;;;;;;5112745;28;20474;-72
2023/05/06 04:31:45;;;;;;;0.95;0.70;;;10.90;85.10;;;;;;5094917;28;20036;-72
2023/05/06 04:34:11;;;;;;;0.93;0.75;;;10.90;85.10;;;;;;5094643;28;20142;-72
2023/05/06 04:36:36;;;;;;;1.00;0.90;;;10.90;85.10;;;;;;5112940;28;20075;-72
2023/05/06 04:39:02;;;;;;;0.90;0.70;;;10.90;85.10;;;;;;5094239;28;20497;-71
2023/05/06 04:41:29;;;;;;;0.73;0.70;;;10.90;85.10;;;;;;5112756;28;20035;-71
2023/05/06 04:43:55;;;;;;;0.82;0.70;;;10.90;85.00;;;;;;5112307;28;20055;-71
2023/05/06 04:46:22;;;;;;;0.60;0.60;;;11.00;85.00;;;;;;5112251;28;20035;-71
2023/05/06 04:48:48;;;;;;;0.82;0.80;;;11.00;85.00;;;;;;5112326;28;20131;-72
2023/05/06 04:51:14;;;;;;;0.70;0.68;;;11.00;85.00;;;;;;5112809;28;20067;-72
2023/05/06 04:53:40;;;;;;;0.50;0.50;;;11.10;85.00;;;;;;5112173;28;20097;-71
2023/05/06 04:56:06;;;;;;;1.20;0.77;;;11.00;84.90;;;;;;5112231;28;20047;-71
2023/05/06 04:58:32;;;;;;;0.60;0.60;;;11.10;85.00;;;;;;5077340;28;20074;-71
2023/05/06 05:01:02;;;;;;;0.70;0.70;;;11.00;85.00;;;;;;5112569;28;20071;-71
2023/05/06 05:03:28;;;;;;;0.50;0.50;;;11.10;85.00;;;;;;5112940;28;20039;-71
2023/05/06 05:05:54;;;;;;;0.40;0.40;;;11.10;85.00;;;;;;5112277;28;20496;-72
2023/05/06 05:08:20;;;;;;;0.90;0.70;;;11.00;85.00;;;;;;5094520;28;20066;-71
2023/05/06 05:10:46;;;;;;;0.50;0.50;;;11.00;85.10;;;;;;5116100;28;20039;-71
2023/05/06 05:13:12;;;;;;;0.60;0.60;;;11.10;85.20;;;;;;5115786;28;20039;-72
2023/05/06 05:15:38;;;;;;;0.60;0.60;;;11.00;85.20;;;;;;5096859;28;20040;-72
2023/05/06 05:18:04;;;;;;;0.60;0.60;;;11.10;85.20;;;;;;5097379;28;20200;-71
2023/05/06 05:20:30;;;;;;;0.73;0.63;;;11.10;85.20;;;;;;5116178;28;20043;-71
2023/05/06 05:22:56;;;;;;;0.55;0.55;;;11.10;85.10;;;;;;5080414;28;20039;-72
2023/05/06 05:25:21;;;;;;;0.50;0.50;;;11.20;85.10;;;;;;5115555;28;20039;-71
2023/05/06 05:27:47;;;;;;;0.60;0.55;;;11.20;85.20;;;;;;5097421;28;20043;-71
2023/05/06 05:30:13;;;;;;;0.73;0.70;;;11.20;85.10;;;;;;5115870;28;20027;-71
2023/05/06 05:32:38;;;;;;;0.77;0.70;;;11.20;85.10;;;;;;5115337;28;20036;-71
2023/05/06 05:35:05;;;;;;;1.00;0.80;;;11.30;85.10;;;;;;5096188;28;20040;-71
2023/05/06 05:37:31;;;;;;;0.63;0.60;;;11.30;85.10;;;;;;5115466;28;20122;-72
2023/05/06 05:39:57;;;;;;;0.82;0.82;;;11.50;85.10;;;;;;5097073;28;20548;-72
2023/05/06 05:42:22;;;;;;;0.82;0.80;;;11.50;85.00;;;;;;5115677;28;20039;-72
2023/05/06 05:44:48;;;;;;;0.80;0.80;;;11.50;84.90;;;;;;5115146;28;20044;-71
2023/05/06 05:47:14;;;;;;;0.70;0.70;;;11.50;84.80;;;;;;5097196;28;20040;-71
2023/05/06 05:49:40;;;;;;;1.63;0.80;;;11.70;84.80;;;;;;5115351;28;20036;-72
2023/05/06 05:52:06;;;;;;;0.75;0.73;;;11.70;84.70;;;;;;5115743;28;20055;-71
2023/05/06 05:54:32;;;;;;;0.82;0.57;;;11.70;84.60;;;;;;5115374;28;20077;-72
2023/05/06 05:56:58;;;;;;;0.70;0.70;;;11.80;84.50;;;;;;5115323;28;20058;-71
2023/05/06 05:59:24;;;;;;;1.10;0.90;;;11.90;84.50;;;;;;5097186;28;20142;-71
2023/05/06 06:01:50;;;;;;;0.95;0.80;;;12.00;84.40;;;;;;5078265;28;20117;-71
2023/05/06 06:04:15;;;;;;;1.02;0.90;;;12.00;84.40;;;;;;5115165;28;20085;-72
2023/05/06 06:06:41;;;;;;;0.93;0.80;;;12.10;84.30;;;;;;5115140;28;20059;-72
2023/05/06 06:09:08;;;;;;;1.10;0.80;;;12.20;84.20;;;;;;5114885;28;20035;-71
2023/05/06 06:11:33;;;;;;;0.95;0.90;;;12.50;84.20;;;;;;5114821;28;20079;-72
2023/05/06 06:14:01;;;;;;;1.13;0.90;;;12.50;84.00;;;;;;5095974;28;20082;-72
2023/05/06 06:16:27;;;;;;;1.10;1.00;;;12.60;83.80;;;;;;5114766;28;20055;-72
2023/05/06 06:18:53;;;;;;;0.95;0.93;;;12.60;83.70;;;;;;5114823;28;20039;-71
2023/05/06 06:21:18;;;;;;;1.00;0.88;;;12.70;83.70;;;;;;5095153;28;20051;-72
2023/05/06 06:23:44;;;;;;;0.90;0.90;;;12.70;83.70;;;;;;5095426;28;20044;-72
2023/05/06 06:26:10;;;;;;;1.25;1.00;;;12.80;83.80;;;;;;5096346;28;20032;-72
2023/05/06 06:28:35;;;;;;;1.38;1.10;;;12.90;83.80;;;;;;5094179;28;20047;-72
2023/05/06 06:31:01;;;;;;;1.25;0.90;;;12.90;83.80;;;;;;5114497;28;20051;-72
2023/05/06 06:33:27;;;;;;;1.83;1.30;;;12.90;83.80;;;;;;5114713;28;20035;-72
2023/05/06 06:35:52;;;;;;;1.40;1.10;;;12.90;83.90;;;;;;5096361;28;20035;-73
2023/05/06 06:38:18;;;;;;;1.23;1.10;;;13.00;83.90;;;;;;5114740;28;20397;-72
2023/05/06 06:40:43;;;;;;;0.80;0.80;;;13.00;83.70;;;;;;5096048;28;20462;-72
2023/05/06 06:43:09;;;;;;;1.15;0.93;;;13.10;83.90;;;;;;5094457;28;20040;-71
2023/05/06 06:45:35;;;;;;;1.58;1.02;;;13.10;84.00;;;;;;5096308;28;20043;-72
2023/05/06 06:48:00;;;;;;;1.00;0.90;;;13.20;84.10;;;;;;5096136;28;20035;-71
2023/05/06 06:50:26;;;;;;;1.05;0.95;;;13.10;84.00;;;;;;5094422;28;20414;-72
2023/05/06 06:52:52;;;;;;;0.98;0.90;;;13.20;84.10;;;;;;5114213;28;20089;-71
2023/05/06 06:55:17;;;;;;;1.73;1.13;;;13.10;84.30;;;;;;5114663;28;20027;-72
2023/05/06 06:57:43;;;;;;;0.82;0.80;;;13.20;84.40;;;;;;5094476;28;20076;-72
2023/05/06 07:00:09;;;;;;;1.10;1.00;;;13.30;84.50;;;;;;5114106;28;20039;-72
2023/05/06 07:02:35;;;;;;;0.98;0.88;;;13.30;84.40;;;;;;5113945;28;20167;-72
2023/05/06 07:05:01;;;;;;;0.80;0.80;;;13.40;84.30;;;;;;5113989;28;20040;-72
2023/05/06 07:07:27;;;;;;;0.70;0.70;;;13.50;84.20;;;;;;5114237;28;20031;-72
2023/05/06 07:09:52;;;;;;;0.70;0.70;;;13.50;84.20;;;;;;5096488;28;20538;-72
2023/05/06 07:12:18;;;;;;;1.40;0.98;;;13.60;84.20;;;;;;5113986;28;20032;-73
2023/05/06 07:14:44;;;;;;;1.17;1.08;;;13.60;84.30;;;;;;5079123;28;20039;-72
2023/05/06 07:17:10;;;;;;;1.05;0.90;;;13.60;84.20;;;;;;5114127;28;20039;-72
2023/05/06 07:19:35;;;;;;;0.95;0.77;;;13.70;84.30;;;;;;5113849;28;20078;-73
2023/05/06 07:22:01;;;;;;;1.02;0.93;;;13.80;84.90;;;;;;5094285;28;20032;-72
2023/05/06 07:24:27;;;;;;;1.33;1.00;;;13.80;84.20;;;;;;5078737;28;20047;-73
2023/05/06 07:26:53;;;;;;;1.23;1.10;;;13.90;84.10;;;;;;5113802;28;20032;-72
2023/05/06 07:29:18;;;;;;;1.05;0.95;;;13.90;84.00;;;;;;5113739;28;20396;-72
2023/05/06 07:31:44;;;;;;;1.30;1.13;;;14.10;83.90;;;;;;5113322;28;20036;-73
2023/05/06 07:34:10;;;;;;;1.83;1.27;;;14.20;83.70;;;;;;5113608;28;20027;-72
2023/05/06 07:36:39;;;;;;;1.23;1.10;;;14.40;83.70;;;;;;5113503;28;20044;-73
2023/05/06 07:39:06;;;;;;;1.13;1.02;;;14.40;83.60;;;;;;5113609;28;20081;-72
2023/05/06 07:41:32;;;;;;;1.67;1.17;;;14.60;83.60;;;;;;5078387;28;20058;-72
2023/05/06 07:43:58;;;;;;;1.40;1.00;;;14.70;83.40;;;;;;5113478;28;20496;-72
2023/05/06 07:46:23;;;;;;;1.42;1.10;;;14.70;83.30;;;;;;5113362;28;20477;-72
2023/05/06 07:48:49;;;;;;;0.82;0.80;;;14.80;83.10;;;;;;5113219;28;20078;-72
2023/05/06 07:51:15;;;;;;;1.20;1.00;;;14.80;83.10;;;;;;5094975;28;20031;-72
2023/05/06 07:53:40;;;;;;;1.13;0.95;;;15.00;83.00;;;;;;5113719;28;20036;-72
2023/05/06 07:56:06;;;;;;;1.15;1.05;;;15.10;83.00;;;;;;5113591;28;20038;-72
2023/05/06 07:58:32;;;;;;;1.42;1.10;;;15.10;82.80;;;;;;5113430;28;20527;-73
2023/05/06 08:00:58;;;;;;;1.50;1.15;;;15.20;82.90;;;;;;5077891;28;20044;-72
2023/05/06 08:03:24;;;;;;;1.05;0.98;;;15.20;82.90;;;;;;5113688;28;20043;-72
2023/05/06 08:05:50;;;;;;;1.02;0.90;;;15.20;83.00;;;;;;5113584;28;20036;-72
2023/05/06 08:08:17;;;;;;;1.85;1.20;;;15.30;83.10;;;;;;5113155;28;20035;-72
2023/05/06 08:10:43;;;;;;;1.13;1.02;;;15.30;83.10;;;;;;5095233;28;20514;-72
2023/05/06 08:13:09;;;;;;;1.70;1.30;;;15.40;83.00;;;;;;5113474;28;20038;-72
2023/05/06 08:15:35;;;;;;;1.42;1.17;;;15.50;82.80;;;;;;5113065;28;20473;-73
2023/05/06 08:18:00;;;;;;;1.35;1.10;;;15.60;82.70;;;;;;5094780;28;20089;-72
2023/05/06 08:20:26;;;;;;;1.65;1.10;;;15.70;82.60;;;;;;5112914;28;20096;-72
2023/05/06 08:22:52;;;;;;;1.02;0.70;;;15.70;82.60;;;;;;5077798;28;20039;-72
2023/05/06 08:25:17;;;;;;;1.08;0.90;;;15.70;82.70;;;;;;5112813;28;20040;-72
2023/05/06 08:27:44;;;;;;;1.73;1.10;;;15.90;82.70;;;;;;5112769;28;20044;-72
2023/05/06 08:30:10;;;;;;;2.58;1.10;;;16.00;82.70;;;;;;5113206;28;20089;-72
2023/05/06 08:32:36;;;;;;;2.55;1.50;;;16.00;82.60;;;;;;5113298;28;20484;-72
2023/05/06 08:35:02;;;;;;;1.80;1.13;;;16.00;82.50;;;;;;5112825;28;20067;-72
2023/05/06 08:37:29;;;;;;;1.60;1.20;;;16.00;82.70;;;;;;5113361;28;20071;-72
2023/05/06 08:39:55;;;;;;;1.30;1.10;;;16.10;82.50;;;;;;5112743;28;20043;-72
2023/05/06 08:42:23;;;;;;;1.42;1.10;;;16.30;82.40;;;;;;5094810;28;20398;-72
2023/05/06 08:44:51;;;;;;;1.10;1.00;;;16.50;82.20;;;;;;5114856;28;20177;-72
2023/05/06 08:47:19;;;;;;;1.00;0.90;;;16.60;81.90;;;;;;5098031;28;20040;-72
2023/05/06 08:49:45;;;;;;;1.75;1.25;;;16.70;81.80;;;;;;5097880;28;20079;-72
2023/05/06 08:52:11;;;;;;;1.73;1.40;;;16.80;81.50;;;;;;5081012;28;20605;-72
2023/05/06 08:54:37;;;;;;;1.33;1.20;;;16.90;81.30;;;;;;5116170;28;20396;-73
2023/05/06 08:57:05;;;;;;;1.83;1.30;;;17.10;81.10;;;;;;5115945;28;20035;-72
2023/05/06 08:59:32;;;;;;;1.50;1.27;;;17.20;80.90;;;;;;5115940;28;20101;-73
2023/05/06 09:02:01;;;;;;;1.33;1.00;;;17.40;80.80;;;;;;5115947;28;20127;-70
2023/05/06 09:04:30;;;;;;;1.67;1.30;;;17.60;80.60;;;;;;5115791;28;20508;-70
2023/05/06 09:06:58;;;;;;;1.48;1.02;;;17.70;80.50;;;;;;5115952;28;20040;-71
2023/05/06 09:09:24;;;;;;;2.13;1.40;;;17.90;80.40;;;;;;5052944;28;20037;-71
2023/05/06 09:11:53;;;;;;;1.05;0.95;;;17.90;80.10;;;;;;5036246;28;20371;-71
2023/05/06 09:14:20;;;;;;;1.58;1.15;;;18.00;80.00;;;;;;5053047;28;20041;-71
2023/05/06 09:16:48;;;;;;;1.75;1.20;;;18.10;79.90;;;;;;5020371;28;20084;-73
2023/05/06 09:19:18;;;;;;;1.55;1.10;;;18.30;80.00;;;;;;4996565;28;20041;-70
2023/05/06 09:21:46;;;;;;;1.55;1.15;;;18.60;79.70;;;;;;4996950;28;20042;-71
2023/05/06 09:24:14;;;;;;;0.90;0.90;;;18.90;79.20;;;;;;5012895;28;20037;-71
2023/05/06 09:26:42;;;;;;;1.23;1.10;;;19.10;78.60;;;;;;4996459;28;20427;-71
2023/05/06 09:29:09;;;;;;;1.45;1.20;;;19.30;78.30;;;;;;5013239;28;20046;-71
2023/05/06 09:31:44;;;;;;;0.90;0.80;;;19.50;78.00;;;;;;4996654;28;20053;-71
2023/05/06 09:34:11;;;;;;;1.20;0.90;;;19.50;77.90;;;;;;5013225;28;20186;-71
2023/05/06 09:36:37;;;;;;;2.38;1.38;;;19.50;78.00;;;;;;5013240;28;20074;-71
2023/05/06 09:39:03;;;;;;;1.17;1.08;;;19.40;78.20;;;;;;4996656;28;20080;-70
2023/05/06 09:41:29;;;;;;;1.88;1.23;;;19.40;78.40;;;;;;5070456;28;20079;-71
2023/05/06 09:43:57;;;;;;;1.55;1.27;;;19.30;78.70;;;;;;5055887;28;20151;-71
2023/05/06 09:46:24;;;;;;;1.20;1.08;;;19.20;78.80;;;;;;5072665;28;20062;-71
2023/05/06 09:48:52;;;;;;;1.38;0.98;;;19.40;78.90;;;;;;5072532;28;20037;-71
2023/05/06 09:51:18;;;;;;;1.15;1.00;;;19.60;78.70;;;;;;5093538;28;20040;-71
2023/05/06 09:53:45;;;;;;;1.60;1.33;;;19.60;78.30;;;;;;5115139;28;20039;-71
2023/05/06 09:56:13;;;;;;;1.13;0.93;;;19.60;78.40;;;;;;5097007;28;20039;-72
2023/05/06 09:58:39;;;;;;;1.35;1.23;;;19.70;78.40;;;;;;5096449;28;20500;-71
2023/05/06 10:01:06;;;;;;;1.23;0.90;;;19.80;78.00;;;;;;5115426;28;20068;-71
2023/05/06 10:03:33;;;;;;;1.45;0.90;;;19.90;77.90;;;;;;5115579;28;20044;-71
2023/05/06 10:06:01;;;;;;;1.10;1.00;;;19.90;77.90;;;;;;5111182;28;20043;-71
2023/05/06 10:08:27;;;;;;;1.60;1.20;;;19.90;77.90;;;;;;5115455;28;20480;-71
2023/05/06 10:10:54;;;;;;;1.00;0.93;;;19.90;77.70;;;;;;5114989;28;20051;-71
2023/05/06 10:13:21;;;;;;;1.52;1.25;;;19.80;77.90;;;;;;5115350;28;20126;-71
2023/05/06 10:15:48;;;;;;;1.60;0.98;;;19.90;78.10;;;;;;5096730;28;20036;-71
2023/05/06 10:18:16;;;;;;;0.98;0.82;;;20.00;77.90;;;;;;5115270;28;20040;-71
2023/05/06 10:20:44;;;;;;;0.80;0.70;;;20.20;77.50;;;;;;5097354;28;20044;-72
2023/05/06 10:23:42;;;;;;;0.85;0.80;;;20.40;77.00;;;;;;5114681;28;20143;-71
2023/05/06 10:26:11;;;;;;;0.98;0.88;;;20.60;76.50;;;;;;5101671;28;20048;-72
2023/05/06 10:28:40;;;;;;;1.73;1.20;;;20.70;76.20;;;;;;5114832;28;20059;-72
2023/05/06 10:31:11;;;;;;;1.92;1.30;;;20.90;75.70;;;;;;5114541;28;20493;-72
2023/05/06 10:33:42;;;;;;;1.30;0.95;;;21.00;75.20;;;;;;5114697;28;20093;-72
2023/05/06 10:36:22;;;;;;;1.48;0.80;;;21.00;75.30;;;;;;5096281;28;20040;-72
2023/05/06 10:38:53;;;;;;;0.85;0.80;;;21.10;75.40;;;;;;5114664;28;20093;-72
2023/05/06 10:41:21;;;;;;;1.05;0.90;;;21.10;75.20;;;;;;5094634;28;20032;-72
2023/05/06 10:43:48;;;;;;;1.05;0.95;;;21.30;75.10;;;;;;5114438;28;20043;-72
2023/05/06 10:46:16;;;;;;;1.38;1.15;;;21.40;74.80;;;;;;5114583;28;20047;-72
2023/05/06 10:49:15;;;;;;;1.10;1.00;;;21.40;74.60;;;;;;5114429;28;20051;-72
2023/05/06 10:51:40;;;;;;;0.90;0.90;;;21.40;74.40;;;;;;5095699;28;20036;-72
2023/05/06 10:54:09;;;;;;;0.73;0.73;;;21.20;74.80;;;;;;5114308;28;20390;-72
2023/05/06 10:56:37;;;;;;;0.70;0.70;;;21.30;74.80;;;;;;5114114;28;20052;-72
2023/05/06 10:59:06;;;;;;;0.82;0.77;;;21.30;74.90;;;;;;5094170;28;20058;-72
2023/05/06 11:01:34;;;;;;;1.25;0.98;;;21.30;74.90;;;;;;5114188;28;20488;-72
2023/05/06 11:04:11;;;;;;;0.75;0.60;;;21.30;74.80;;;;;;5113896;28;20519;-72
2023/05/06 11:06:45;;;;;;;0.75;0.75;;;21.30;74.70;;;;;;5113838;28;20400;-72
2023/05/06 11:09:22;;;;;;;0.70;0.70;;;21.20;74.90;;;;;;5114006;28;20047;-72
2023/05/06 11:12:01;;;;;;;0.60;0.60;;;21.10;75.20;;;;;;5114064;28;20035;-72
2023/05/06 11:14:35;;;;;;;0.95;0.70;;;21.20;75.30;;;;;;5113906;28;20130;-72
2023/05/06 11:17:06;;;;;;;0.60;0.60;;;21.40;75.00;;;;;;5095706;28;20043;-72
2023/05/06 11:19:34;;;;;;;1.23;0.90;;;21.60;74.40;;;;;;5113953;28;20097;-72
2023/05/06 11:22:02;;;;;;;0.70;0.70;;;21.70;74.00;;;;;;5113976;28;20036;-72
2023/05/06 11:24:42;;;;;;;0.88;0.80;;;21.70;73.90;;;;;;5094743;28;20127;-72
2023/05/06 11:27:09;;;;;;;0.70;0.70;;;21.70;73.60;;;;;;5114317;28;20071;-72
2023/05/06 11:29:36;;;;;;;0.88;0.60;;;21.80;73.60;;;;;;5113937;28;20118;-72
2023/05/06 11:32:04;;;;;;;0.60;0.60;;;21.90;73.60;;;;;;5079293;28;20055;-72
2023/05/06 11:34:31;;;;;;;0.80;0.68;;;22.00;73.30;;;;;;5095442;28;20099;-72
2023/05/06 11:37:06;;;;;;;1.20;0.90;;;22.00;73.10;;;;;;5114070;28;20043;-71
2023/05/06 11:39:33;;;;;;;1.58;0.90;;;22.00;72.80;;;;;;5113564;28;20216;-72
2023/05/06 11:42:02;;;;;;;0.52;0.52;;;21.90;73.10;;;;;;5113553;28;20050;-72
2023/05/06 11:44:31;;;;;;;0.63;0.63;;;21.90;73.00;;;;;;5113902;28;20048;-72
2023/05/06 11:46:58;;;;;;;0.60;0.60;;;21.90;72.90;;;;;;5114021;28;20044;-72
2023/05/06 11:49:25;;;;;;;0.70;0.70;;;22.10;72.70;;;;;;5095094;28;20043;-72
2023/05/06 11:51:51;;;;;;;1.48;0.82;;;22.20;72.70;;;;;;5113390;28;20031;-72
2023/05/06 11:54:19;;;;;;;1.40;0.70;;;22.20;72.30;;;;;;5113218;28;20047;-71
2023/05/06 11:56:50;;;;;;;1.10;1.00;;;22.10;72.30;;;;;;5113638;28;20031;-71
2023/05/06 11:59:17;;;;;;;0.70;0.70;;;22.10;72.40;;;;;;5113498;28;20106;-72
2023/05/06 12:01:44;;;;;;;0.52;0.52;;;21.90;72.60;;;;;;5113214;28;20081;-72
2023/05/06 12:04:10;;;;;;;0.85;0.60;;;22.00;72.50;;;;;;5113200;28;20043;-72
2023/05/06 12:06:37;;;;;;;0.75;0.50;;;22.10;72.20;;;;;;5077725;28;20481;-72
2023/05/06 12:09:05;;;;;;;0.60;0.60;;;22.20;71.90;;;;;;5094665;28;20036;-72
2023/05/06 12:11:33;;;;;;;0.80;0.45;;;22.30;72.00;;;;;;5113309;28;20086;-72
2023/05/06 12:14:01;;;;;;;0.50;0.50;;;22.30;71.80;;;;;;5113489;28;20040;-72
2023/05/06 12:16:27;;;;;;;0.95;0.40;;;22.30;71.60;;;;;;5112933;28;20036;-72
2023/05/06 12:18:54;;;;;;;0.50;0.50;;;22.30;71.50;;;;;;5093550;28;20039;-72
2023/05/06 12:21:22;;;;;;;0.50;0.50;;;22.20;71.70;;;;;;5094697;28;20123;-72
2023/05/06 12:23:53;;;;;;;0.60;0.50;;;22.20;71.60;;;;;;5113118;28;20040;-72
2023/05/06 12:26:19;;;;;;;0.50;0.40;;;22.10;71.40;;;;;;5112786;28;20051;-72
2023/05/06 12:29:05;;;;;;;0.30;0.30;;;22.10;71.80;;;;;;5112996;28;20512;-71
2023/05/06 12:31:31;;;;;;;0.40;0.40;;;22.10;71.80;;;;;;5112659;28;20122;-72
2023/05/06 12:33:57;;;;;;;0.50;0.50;;;22.20;71.40;;;;;;5112610;28;20511;-71
2023/05/06 12:36:22;;;;;;;0.50;0.50;;;22.20;71.10;;;;;;5112898;28;20040;-72
2023/05/06 12:38:51;;;;;;;0.43;0.43;;;22.30;71.10;;;;;;5112737;28;20032;-71
2023/05/06 12:41:18;;;;;;;0.63;0.60;;;22.40;70.90;;;;;;5112781;28;20507;-72
2023/05/06 12:43:44;;;;;;;0.50;0.50;;;22.30;70.80;;;;;;5112874;28;20031;-72
2023/05/06 12:46:11;;;;;;;0.93;0.50;;;22.30;70.90;;;;;;5112411;28;20043;-72
2023/05/06 12:48:37;;;;;;;1.35;0.60;;;22.40;70.80;;;;;;5094457;28;20131;-72